Finike, Turkey
Current Conditions -  °F | °C
As of 8:20 PM on Monday 20 Oct 2014 (Local Time) from LTAI Reporting Station
Clear Clear  
Wind Chill: 19°   Ceiling: Unl
Heat Index: 19°   Visibility: 6mi
Dew Point: -7°   Wind: 8mph
Humidity: 17%   Direction: 330°NNW
Pressure: 29.88"   Gusts: NA
Location:  36.3°N, 30.14°E
Report Text: LTAI 201720Z 33007KT 290V350 CAVOK 19/M07 Q1012 NOSIG
Loading
Personal Weather Stations






























Interactive Weather Map
Tropical Storm Tracking
New forecast layout! Learn more

10-Day Weather Forecast

Advertisements
Track Severe Weather on mobile